sensor_id;sensor_type;location;lat;lon;timestamp;pressure;altitude;pressure_sealevel;temperature;humidity
51986;BME280;38002;53.296;6.600;2023-05-02T00:03:07;102090.25;;;10.16;78.84
51986;BME280;38002;53.296;6.600;2023-05-02T00:19:02;102113.19;;;10.12;79.99
51986;BME280;38002;53.296;6.600;2023-05-02T00:24:02;102111.47;;;10.11;79.96
51986;BME280;38002;53.296;6.600;2023-05-02T00:29:03;102105.31;;;10.09;79.66
51986;BME280;38002;53.296;6.600;2023-05-02T00:34:04;102122.47;;;10.10;80.27
51986;BME280;38002;53.296;6.600;2023-05-02T00:39:04;102130.63;;;10.10;79.59
51986;BME280;38002;53.296;6.600;2023-05-02T00:44:05;102124.94;;;10.13;79.98
51986;BME280;38002;53.296;6.600;2023-05-02T00:49:05;102130.38;;;10.13;80.44
51986;BME280;38002;53.296;6.600;2023-05-02T00:54:06;102131.38;;;10.12;79.87
51986;BME280;38002;53.296;6.600;2023-05-02T00:59:07;102131.38;;;10.12;79.93
51986;BME280;38002;53.296;6.600;2023-05-02T01:04:20;102126.31;;;10.07;80.29
51986;BME280;38002;53.296;6.600;2023-05-02T01:10:00;102136.84;;;10.00;81.23
51986;BME280;38002;53.296;6.600;2023-05-02T01:15:08;102154.38;;;9.96;79.76
51986;BME280;38002;53.296;6.600;2023-05-02T01:20:16;102163.28;;;9.87;80.01
51986;BME280;38002;53.296;6.600;2023-05-02T01:25:29;102173.66;;;9.71;80.56
51986;BME280;38002;53.296;6.600;2023-05-02T01:30:33;102178.63;;;9.55;80.70
51986;BME280;38002;53.296;6.600;2023-05-02T01:35:36;102179.59;;;9.43;81.05
51986;BME280;38002;53.296;6.600;2023-05-02T01:40:37;102191.44;;;9.31;80.27
51986;BME280;38002;53.296;6.600;2023-05-02T01:45:40;102205.22;;;9.17;80.35
51986;BME280;38002;53.296;6.600;2023-05-02T01:50:43;102215.72;;;9.10;80.08
51986;BME280;38002;53.296;6.600;2023-05-02T01:55:44;102226.41;;;9.00;82.89
51986;BME280;38002;53.296;6.600;2023-05-02T02:00:46;102239.69;;;8.92;81.12
51986;BME280;38002;53.296;6.600;2023-05-02T02:05:47;102240.50;;;8.82;80.50
51986;BME280;38002;53.296;6.600;2023-05-02T02:10:53;102255.63;;;8.73;80.50
51986;BME280;38002;53.296;6.600;2023-05-02T02:15:58;102265.44;;;8.63;79.76
51986;BME280;38002;53.296;6.600;2023-05-02T02:21:01;102285.97;;;8.54;79.55
51986;BME280;38002;53.296;6.600;2023-05-02T02:26:03;102287.50;;;8.46;80.16
51986;BME280;38002;53.296;6.600;2023-05-02T02:31:04;102296.13;;;8.40;80.37
51986;BME280;38002;53.296;6.600;2023-05-02T02:36:14;102300.91;;;8.36;79.00
51986;BME280;38002;53.296;6.600;2023-05-02T02:41:31;102311.19;;;8.31;79.41
51986;BME280;38002;53.296;6.600;2023-05-02T02:46:49;102327.88;;;8.25;78.51
51986;BME280;38002;53.296;6.600;2023-05-02T02:52:06;102329.28;;;8.18;78.77
51986;BME280;38002;53.296;6.600;2023-05-02T03:02:36;102344.47;;;8.08;78.18
51986;BME280;38002;53.296;6.600;2023-05-02T03:07:37;102352.06;;;8.03;78.09
51986;BME280;38002;53.296;6.600;2023-05-02T03:12:37;102371.34;;;7.98;78.41
51986;BME280;38002;53.296;6.600;2023-05-02T03:17:39;102375.38;;;7.93;78.10
51986;BME280;38002;53.296;6.600;2023-05-02T03:22:39;102386.31;;;7.91;78.57
51986;BME280;38002;53.296;6.600;2023-05-02T03:27:40;102394.66;;;7.88;77.67
51986;BME280;38002;53.296;6.600;2023-05-02T03:32:40;102397.78;;;7.82;77.88
51986;BME280;38002;53.296;6.600;2023-05-02T03:37:41;102403.63;;;7.76;76.97
51986;BME280;38002;53.296;6.600;2023-05-02T03:42:42;102414.00;;;7.69;76.58
51986;BME280;38002;53.296;6.600;2023-05-02T03:47:42;102424.19;;;7.66;76.77
51986;BME280;38002;53.296;6.600;2023-05-02T03:52:42;102422.19;;;7.55;76.71
51986;BME280;38002;53.296;6.600;2023-05-02T03:57:43;102433.81;;;7.57;76.69
51986;BME280;38002;53.296;6.600;2023-05-02T04:02:43;102446.69;;;7.54;76.38
51986;BME280;38002;53.296;6.600;2023-05-02T04:07:44;102450.56;;;7.50;75.86
51986;BME280;38002;53.296;6.600;2023-05-02T04:12:44;102450.66;;;7.48;75.38
51986;BME280;38002;53.296;6.600;2023-05-02T04:17:44;102462.56;;;7.46;74.88
51986;BME280;38002;53.296;6.600;2023-05-02T04:22:46;102467.41;;;7.41;74.36
51986;BME280;38002;53.296;6.600;2023-05-02T04:27:47;102476.72;;;7.37;74.85
51986;BME280;38002;53.296;6.600;2023-05-02T04:32:47;102467.81;;;7.35;73.72
51986;BME280;38002;53.296;6.600;2023-05-02T04:37:48;102484.91;;;7.35;74.62
51986;BME280;38002;53.296;6.600;2023-05-02T04:42:48;102491.28;;;7.34;74.87
51986;BME280;38002;53.296;6.600;2023-05-02T04:47:48;102491.41;;;7.33;74.42
51986;BME280;38002;53.296;6.600;2023-05-02T04:52:49;102501.25;;;7.34;74.36
51986;BME280;38002;53.296;6.600;2023-05-02T04:57:49;102509.38;;;7.34;74.14
51986;BME280;38002;53.296;6.600;2023-05-02T05:02:50;102518.19;;;7.37;73.43
51986;BME280;38002;53.296;6.600;2023-05-02T05:07:51;102518.06;;;7.39;73.53
51986;BME280;38002;53.296;6.600;2023-05-02T05:12:51;102526.97;;;7.41;73.19
51986;BME280;38002;53.296;6.600;2023-05-02T05:17:52;102536.25;;;7.37;73.29
51986;BME280;38002;53.296;6.600;2023-05-02T05:22:53;102544.94;;;7.42;72.50
51986;BME280;38002;53.296;6.600;2023-05-02T05:27:53;102552.28;;;7.40;72.96
51986;BME280;38002;53.296;6.600;2023-05-02T05:32:55;102563.88;;;7.42;73.48
51986;BME280;38002;53.296;6.600;2023-05-02T05:37:57;102562.34;;;7.38;69.63
51986;BME280;38002;53.296;6.600;2023-05-02T05:42:57;102580.13;;;7.42;72.84
51986;BME280;38002;53.296;6.600;2023-05-02T05:47:58;102574.78;;;7.40;71.87
51986;BME280;38002;53.296;6.600;2023-05-02T05:52:58;102592.66;;;7.43;71.88
51986;BME280;38002;53.296;6.600;2023-05-02T05:57:59;102598.84;;;7.45;71.82
51986;BME280;38002;53.296;6.600;2023-05-02T06:02:59;102601.28;;;7.49;72.00
51986;BME280;38002;53.296;6.600;2023-05-02T06:08:00;102606.47;;;7.52;71.13
51986;BME280;38002;53.296;6.600;2023-05-02T06:13:00;102618.16;;;7.53;70.76
51986;BME280;38002;53.296;6.600;2023-05-02T06:18:01;102627.16;;;7.53;71.19
51986;BME280;38002;53.296;6.600;2023-05-02T06:23:01;102629.78;;;7.55;70.34
51986;BME280;38002;53.296;6.600;2023-05-02T06:28:02;102633.25;;;7.57;70.41
51986;BME280;38002;53.296;6.600;2023-05-02T06:33:05;102637.56;;;7.59;70.06
51986;BME280;38002;53.296;6.600;2023-05-02T06:38:06;102647.34;;;7.62;69.39
51986;BME280;38002;53.296;6.600;2023-05-02T06:43:07;102663.31;;;7.66;70.02
51986;BME280;38002;53.296;6.600;2023-05-02T06:48:07;102668.13;;;7.75;70.85
51986;BME280;38002;53.296;6.600;2023-05-02T06:53:09;102669.44;;;7.83;70.04
51986;BME280;38002;53.296;6.600;2023-05-02T06:58:10;102675.16;;;7.92;69.66
51986;BME280;38002;53.296;6.600;2023-05-02T07:03:10;102678.31;;;7.99;69.52
51986;BME280;38002;53.296;6.600;2023-05-02T07:08:10;102682.38;;;8.06;69.70
51986;BME280;38002;53.296;6.600;2023-05-02T07:13:11;102695.41;;;8.13;69.46
51986;BME280;38002;53.296;6.600;2023-05-02T07:18:12;102695.97;;;8.18;68.95
51986;BME280;38002;53.296;6.600;2023-05-02T07:23:12;102700.69;;;8.29;68.69
51986;BME280;38002;53.296;6.600;2023-05-02T07:28:12;102718.09;;;8.39;68.65
51986;BME280;38002;53.296;6.600;2023-05-02T07:33:14;102720.75;;;8.53;68.95
51986;BME280;38002;53.296;6.600;2023-05-02T07:38:14;102727.97;;;8.67;69.08
51986;BME280;38002;53.296;6.600;2023-05-02T07:43:15;102724.09;;;8.84;68.66
51986;BME280;38002;53.296;6.600;2023-05-02T07:48:15;102721.81;;;9.03;68.08
51986;BME280;38002;53.296;6.600;2023-05-02T07:53:16;102730.22;;;9.25;67.90
51986;BME280;38002;53.296;6.600;2023-05-02T07:58:16;102736.94;;;9.45;66.85
51986;BME280;38002;53.296;6.600;2023-05-02T08:03:17;102743.22;;;9.58;66.11
51986;BME280;38002;53.296;6.600;2023-05-02T08:08:17;102727.63;;;9.49;65.68
51986;BME280;38002;53.296;6.600;2023-05-02T08:13:18;102740.41;;;9.72;65.43
51986;BME280;38002;53.296;6.600;2023-05-02T08:18:18;102737.88;;;9.82;65.56
51986;BME280;38002;53.296;6.600;2023-05-02T08:23:19;102740.81;;;9.91;64.40
51986;BME280;38002;53.296;6.600;2023-05-02T08:28:19;102755.69;;;9.98;65.03
51986;BME280;38002;53.296;6.600;2023-05-02T08:33:20;102747.28;;;10.01;65.44
51986;BME280;38002;53.296;6.600;2023-05-02T08:38:20;102737.59;;;10.23;64.90
51986;BME280;38002;53.296;6.600;2023-05-02T08:43:21;102740.06;;;10.97;64.66
51986;BME280;38002;53.296;6.600;2023-05-02T08:48:22;102753.09;;;11.84;63.71
51986;BME280;38002;53.296;6.600;2023-05-02T08:53:23;102766.13;;;12.03;62.07
51986;BME280;38002;53.296;6.600;2023-05-02T08:58:24;102772.81;;;11.88;61.88
51986;BME280;38002;53.296;6.600;2023-05-02T09:03:31;102781.53;;;11.58;62.04
51986;BME280;38002;53.296;6.600;2023-05-02T09:08:33;102801.56;;;11.34;62.51
51986;BME280;38002;53.296;6.600;2023-05-02T09:13:39;102791.94;;;11.07;62.27
51986;BME280;38002;53.296;6.600;2023-05-02T09:18:45;102818.50;;;11.27;63.11
51986;BME280;38002;53.296;6.600;2023-05-02T09:23:56;102823.47;;;11.33;61.90
51986;BME280;38002;53.296;6.600;2023-05-02T09:29:02;102815.94;;;11.36;62.96
51986;BME280;38002;53.296;6.600;2023-05-02T09:39:10;102817.38;;;11.64;62.17
51986;BME280;38002;53.296;6.600;2023-05-02T09:44:12;102823.56;;;11.31;62.90
51986;BME280;38002;53.296;6.600;2023-05-02T09:49:13;102838.22;;;11.07;62.30
51986;BME280;38002;53.296;6.600;2023-05-02T09:54:35;102844.66;;;11.06;61.33
51986;BME280;38002;53.296;6.600;2023-05-02T09:59:38;102838.22;;;11.07;62.32
51986;BME280;38002;53.296;6.600;2023-05-02T10:04:38;102847.16;;;11.09;63.54
51986;BME280;38002;53.296;6.600;2023-05-02T10:09:43;102845.44;;;11.19;63.26
51986;BME280;38002;53.296;6.600;2023-05-02T10:14:48;102855.19;;;11.34;63.10
51986;BME280;38002;53.296;6.600;2023-05-02T10:20:00;102852.97;;;11.96;62.40
51986;BME280;38002;53.296;6.600;2023-05-02T10:25:03;102851.38;;;12.49;59.75
51986;BME280;38002;53.296;6.600;2023-05-02T10:30:04;102859.03;;;13.09;61.32
51986;BME280;38002;53.296;6.600;2023-05-02T10:35:06;102861.13;;;12.85;60.71
51986;BME280;38002;53.296;6.600;2023-05-02T10:40:11;102874.69;;;12.53;60.69
51986;BME280;38002;53.296;6.600;2023-05-02T10:50:51;102891.56;;;12.14;61.35
51986;BME280;38002;53.296;6.600;2023-05-02T10:56:24;102881.75;;;12.22;60.10
51986;BME280;38002;53.296;6.600;2023-05-02T11:06:30;102834.53;;;12.33;61.39
51986;BME280;38002;53.296;6.600;2023-05-02T11:11:42;102878.91;;;12.46;58.37
51986;BME280;38002;53.296;6.600;2023-05-02T11:38:01;102896.22;;;12.79;57.61
51986;BME280;38002;53.296;6.600;2023-05-02T11:43:16;102892.94;;;13.18;57.73
51986;BME280;38002;53.296;6.600;2023-05-02T11:48:18;102895.09;;;13.67;58.74
51986;BME280;38002;53.296;6.600;2023-05-02T11:53:24;102905.63;;;13.92;57.73
51986;BME280;38002;53.296;6.600;2023-05-02T11:58:27;102911.75;;;14.05;56.96
51986;BME280;38002;53.296;6.600;2023-05-02T12:03:34;102926.16;;;14.07;57.59
51986;BME280;38002;53.296;6.600;2023-05-02T12:08:35;102935.88;;;14.21;56.68
51986;BME280;38002;53.296;6.600;2023-05-02T12:13:43;102936.63;;;14.23;54.55
51986;BME280;38002;53.296;6.600;2023-05-02T12:18:44;102935.09;;;14.09;56.25
51986;BME280;38002;53.296;6.600;2023-05-02T12:23:46;102949.28;;;14.35;50.73
51986;BME280;38002;53.296;6.600;2023-05-02T12:28:48;102948.88;;;14.29;56.74
51986;BME280;38002;53.296;6.600;2023-05-02T12:33:49;102950.72;;;14.70;56.54
51986;BME280;38002;53.296;6.600;2023-05-02T12:38:52;102951.81;;;14.88;52.05
51986;BME280;38002;53.296;6.600;2023-05-02T12:43:53;102925.66;;;13.93;56.30
51986;BME280;38002;53.296;6.600;2023-05-02T12:49:04;102969.03;;;13.66;55.90
51986;BME280;38002;53.296;6.600;2023-05-02T12:54:07;102976.06;;;13.47;57.80
51986;BME280;38002;53.296;6.600;2023-05-02T12:59:07;102985.28;;;13.35;57.50
51986;BME280;38002;53.296;6.600;2023-05-02T13:04:09;102990.03;;;13.22;58.36
51986;BME280;38002;53.296;6.600;2023-05-02T13:09:10;102993.25;;;13.16;57.84
51986;BME280;38002;53.296;6.600;2023-05-02T13:14:10;102997.25;;;13.01;57.84
51986;BME280;38002;53.296;6.600;2023-05-02T13:19:11;102987.31;;;12.89;57.88
51986;BME280;38002;53.296;6.600;2023-05-02T13:24:11;102999.13;;;13.11;57.09
51986;BME280;38002;53.296;6.600;2023-05-02T13:29:12;102998.94;;;13.35;57.31
51986;BME280;38002;53.296;6.600;2023-05-02T13:34:12;103001.50;;;13.59;56.68
51986;BME280;38002;53.296;6.600;2023-05-02T13:39:13;102999.44;;;14.04;56.57
51986;BME280;38002;53.296;6.600;2023-05-02T13:44:13;103004.38;;;14.10;55.69
51986;BME280;38002;53.296;6.600;2023-05-02T13:49:14;103009.38;;;14.05;55.82
51986;BME280;38002;53.296;6.600;2023-05-02T13:54:14;103007.22;;;14.29;55.07
51986;BME280;38002;53.296;6.600;2023-05-02T13:59:15;103005.41;;;13.98;55.86
51986;BME280;38002;53.296;6.600;2023-05-02T14:04:15;103007.53;;;13.74;55.66
51986;BME280;38002;53.296;6.600;2023-05-02T14:09:16;103014.59;;;13.44;56.18
51986;BME280;38002;53.296;6.600;2023-05-02T14:14:16;103027.78;;;13.06;57.10
51986;BME280;38002;53.296;6.600;2023-05-02T14:19:17;103024.66;;;12.77;56.89
51986;BME280;38002;53.296;6.600;2023-05-02T14:24:17;103021.09;;;12.77;56.64
51986;BME280;38002;53.296;6.600;2023-05-02T14:29:18;103025.19;;;12.71;56.89
51986;BME280;38002;53.296;6.600;2023-05-02T14:34:19;103027.28;;;12.67;57.24
51986;BME280;38002;53.296;6.600;2023-05-02T14:39:21;103031.47;;;12.60;56.89
51986;BME280;38002;53.296;6.600;2023-05-02T14:44:21;103025.16;;;12.49;57.23
51986;BME280;38002;53.296;6.600;2023-05-02T14:49:22;103024.38;;;12.36;56.82
51986;BME280;38002;53.296;6.600;2023-05-02T14:54:27;103027.16;;;12.47;54.80
51986;BME280;38002;53.296;6.600;2023-05-02T14:59:29;103024.25;;;12.37;56.11
51986;BME280;38002;53.296;6.600;2023-05-02T15:04:30;103019.16;;;12.33;56.23
51986;BME280;38002;53.296;6.600;2023-05-02T15:09:30;103032.66;;;12.34;55.98
51986;BME280;38002;53.296;6.600;2023-05-02T15:14:31;103036.63;;;12.30;55.88
51986;BME280;38002;53.296;6.600;2023-05-02T15:19:31;103045.66;;;12.19;55.93
51986;BME280;38002;53.296;6.600;2023-05-02T15:24:32;103043.84;;;11.96;56.02
51986;BME280;38002;53.296;6.600;2023-05-02T15:29:32;103050.59;;;11.79;56.17
51986;BME280;38002;53.296;6.600;2023-05-02T15:34:32;103045.94;;;11.69;56.64
51986;BME280;38002;53.296;6.600;2023-05-02T15:39:33;103056.16;;;11.65;56.71
51986;BME280;38002;53.296;6.600;2023-05-02T15:44:37;103062.09;;;11.59;56.67
51986;BME280;38002;53.296;6.600;2023-05-02T15:49:38;103059.38;;;11.59;56.86
51986;BME280;38002;53.296;6.600;2023-05-02T15:54:38;103059.53;;;11.45;56.80
51986;BME280;38002;53.296;6.600;2023-05-02T15:59:38;103071.56;;;11.30;57.18
51986;BME280;38002;53.296;6.600;2023-05-02T16:04:39;103075.06;;;11.19;57.69
51986;BME280;38002;53.296;6.600;2023-05-02T16:09:39;103067.78;;;11.07;57.75
51986;BME280;38002;53.296;6.600;2023-05-02T16:14:41;103078.91;;;11.04;57.67
51986;BME280;38002;53.296;6.600;2023-05-02T16:19:42;103066.50;;;11.00;57.27
51986;BME280;38002;53.296;6.600;2023-05-02T16:24:42;103070.31;;;10.98;57.57
51986;BME280;38002;53.296;6.600;2023-05-02T16:29:43;103071.41;;;11.08;57.61
51986;BME280;38002;53.296;6.600;2023-05-02T16:34:43;103067.41;;;11.37;57.08
51986;BME280;38002;53.296;6.600;2023-05-02T16:39:44;103060.88;;;11.63;56.47
51986;BME280;38002;53.296;6.600;2023-05-02T16:44:45;103071.13;;;11.72;56.45
51986;BME280;38002;53.296;6.600;2023-05-02T16:49:45;103089.09;;;11.38;56.73
51986;BME280;38002;53.296;6.600;2023-05-02T16:54:46;103084.88;;;11.09;57.35
51986;BME280;38002;53.296;6.600;2023-05-02T16:59:48;103086.41;;;11.01;57.70
51986;BME280;38002;53.296;6.600;2023-05-02T17:04:49;103083.03;;;10.97;57.66
51986;BME280;38002;53.296;6.600;2023-05-02T17:09:49;103091.78;;;10.77;57.63
51986;BME280;38002;53.296;6.600;2023-05-02T17:14:50;103084.47;;;10.52;58.23
51986;BME280;38002;53.296;6.600;2023-05-02T17:19:50;103089.91;;;10.39;58.48
51986;BME280;38002;53.296;6.600;2023-05-02T17:24:51;103088.56;;;10.32;58.68
51986;BME280;38002;53.296;6.600;2023-05-02T17:29:53;103098.78;;;10.29;58.13
51986;BME280;38002;53.296;6.600;2023-05-02T17:34:53;103106.59;;;10.21;58.79
51986;BME280;38002;53.296;6.600;2023-05-02T17:39:54;103118.38;;;10.07;58.47
51986;BME280;38002;53.296;6.600;2023-05-02T17:44:54;103116.22;;;9.85;59.31
51986;BME280;38002;53.296;6.600;2023-05-02T17:49:55;103121.81;;;9.70;59.74
51986;BME280;38002;53.296;6.600;2023-05-02T17:54:56;103126.31;;;9.56;60.03
51986;BME280;38002;53.296;6.600;2023-05-02T17:59:57;103131.19;;;9.37;60.36
51986;BME280;38002;53.296;6.600;2023-05-02T18:04:58;103133.44;;;9.31;60.09
51986;BME280;38002;53.296;6.600;2023-05-02T18:10:00;103139.16;;;9.26;60.54
51986;BME280;38002;53.296;6.600;2023-05-02T18:15:03;103138.47;;;9.23;60.55
51986;BME280;38002;53.296;6.600;2023-05-02T18:20:05;103144.97;;;9.20;60.95
51986;BME280;38002;53.296;6.600;2023-05-02T18:25:06;103147.78;;;9.19;60.56
51986;BME280;38002;53.296;6.600;2023-05-02T18:30:07;103133.22;;;9.20;60.63
51986;BME280;38002;53.296;6.600;2023-05-02T18:35:08;103138.56;;;9.21;60.37
51986;BME280;38002;53.296;6.600;2023-05-02T18:40:12;103084.97;;;8.82;61.29
51986;BME280;38002;53.296;6.600;2023-05-02T18:45:14;103148.16;;;9.13;60.81
51986;BME280;38002;53.296;6.600;2023-05-02T18:50:15;103125.13;;;9.05;60.69
51986;BME280;38002;53.296;6.600;2023-05-02T18:55:16;103140.22;;;8.95;61.65
51986;BME280;38002;53.296;6.600;2023-05-02T19:00:17;103134.28;;;8.89;62.25
51986;BME280;38002;53.296;6.600;2023-05-02T19:05:19;103130.31;;;8.80;61.33
51986;BME280;38002;53.296;6.600;2023-05-02T19:10:19;103130.91;;;8.71;61.98
51986;BME280;38002;53.296;6.600;2023-05-02T19:15:20;103139.31;;;8.67;61.14
51986;BME280;38002;53.296;6.600;2023-05-02T19:20:22;103130.47;;;8.63;61.71
51986;BME280;38002;53.296;6.600;2023-05-02T19:25:23;103137.94;;;8.59;62.03
51986;BME280;38002;53.296;6.600;2023-05-02T19:30:23;103142.06;;;8.51;61.56
51986;BME280;38002;53.296;6.600;2023-05-02T19:35:24;103153.91;;;8.50;61.99
51986;BME280;38002;53.296;6.600;2023-05-02T19:40:25;103166.75;;;8.46;62.04
51986;BME280;38002;53.296;6.600;2023-05-02T19:45:25;103172.44;;;8.42;62.32
51986;BME280;38002;53.296;6.600;2023-05-02T19:50:26;103170.00;;;8.37;63.03
51986;BME280;38002;53.296;6.600;2023-05-02T19:55:26;103169.44;;;8.32;63.00
51986;BME280;38002;53.296;6.600;2023-05-02T20:00:26;103169.50;;;8.31;62.75
51986;BME280;38002;53.296;6.600;2023-05-02T20:05:27;103167.69;;;8.31;63.06
51986;BME280;38002;53.296;6.600;2023-05-02T20:10:28;103171.16;;;8.33;63.13
51986;BME280;38002;53.296;6.600;2023-05-02T20:15:28;103177.44;;;8.34;63.72
51986;BME280;38002;53.296;6.600;2023-05-02T20:20:29;103182.88;;;8.34;63.13
51986;BME280;38002;53.296;6.600;2023-05-02T20:25:30;103180.28;;;8.32;62.85
51986;BME280;38002;53.296;6.600;2023-05-02T20:30:30;103183.06;;;8.31;63.35
51986;BME280;38002;53.296;6.600;2023-05-02T20:35:31;103192.84;;;8.33;63.92
51986;BME280;38002;53.296;6.600;2023-05-02T20:40:31;103192.75;;;8.35;63.59
51986;BME280;38002;53.296;6.600;2023-05-02T20:45:33;103191.88;;;8.34;64.34
51986;BME280;38002;53.296;6.600;2023-05-02T20:50:33;103186.38;;;8.36;63.44
51986;BME280;38002;53.296;6.600;2023-05-02T20:55:33;103190.84;;;8.37;64.53
51986;BME280;38002;53.296;6.600;2023-05-02T21:00:35;103197.31;;;8.34;64.85
51986;BME280;38002;53.296;6.600;2023-05-02T21:05:35;103202.03;;;8.31;65.16
51986;BME280;38002;53.296;6.600;2023-05-02T21:10:35;103196.16;;;8.23;65.03
51986;BME280;38002;53.296;6.600;2023-05-02T21:15:37;103203.50;;;8.20;65.25
51986;BME280;38002;53.296;6.600;2023-05-02T21:20:38;103207.53;;;8.13;66.19
51986;BME280;38002;53.296;6.600;2023-05-02T21:25:40;103215.25;;;8.05;65.83
51986;BME280;38002;53.296;6.600;2023-05-02T21:30:40;103201.25;;;7.97;65.98
51986;BME280;38002;53.296;6.600;2023-05-02T21:35:41;103198.72;;;7.94;66.76
51986;BME280;38002;53.296;6.600;2023-05-02T21:40:42;103202.47;;;7.92;66.92
51986;BME280;38002;53.296;6.600;2023-05-02T21:45:46;103201.69;;;7.90;67.46
51986;BME280;38002;53.296;6.600;2023-05-02T21:50:47;103200.03;;;7.87;67.44
51986;BME280;38002;53.296;6.600;2023-05-02T21:55:47;103198.19;;;7.88;67.29
51986;BME280;38002;53.296;6.600;2023-05-02T22:00:47;103203.81;;;7.85;66.56
51986;BME280;38002;53.296;6.600;2023-05-02T22:05:48;103202.13;;;7.82;67.36
51986;BME280;38002;53.296;6.600;2023-05-02T22:10:49;103202.31;;;7.79;67.39
51986;BME280;38002;53.296;6.600;2023-05-02T22:15:49;103206.41;;;7.70;67.25
51986;BME280;38002;53.296;6.600;2023-05-02T22:20:50;103198.88;;;7.60;67.76
51986;BME280;38002;53.296;6.600;2023-05-02T22:25:50;103198.78;;;7.46;67.95
51986;BME280;38002;53.296;6.600;2023-05-02T22:30:51;103204.16;;;7.30;67.78
51986;BME280;38002;53.296;6.600;2023-05-02T22:35:51;103214.00;;;7.15;68.45
51986;BME280;38002;53.296;6.600;2023-05-02T22:40:51;103209.56;;;6.97;68.26
51986;BME280;38002;53.296;6.600;2023-05-02T22:45:52;103196.94;;;6.80;69.19
51986;BME280;38002;53.296;6.600;2023-05-02T22:50:52;103208.63;;;6.64;69.40
51986;BME280;38002;53.296;6.600;2023-05-02T22:55:53;103206.69;;;6.49;69.68
51986;BME280;38002;53.296;6.600;2023-05-02T23:00:53;103197.56;;;6.34;69.86
51986;BME280;38002;53.296;6.600;2023-05-02T23:05:54;103196.31;;;6.22;70.12
51986;BME280;38002;53.296;6.600;2023-05-02T23:10:54;103201.41;;;6.11;70.65
51986;BME280;38002;53.296;6.600;2023-05-02T23:15:55;103207.91;;;6.07;70.84
51986;BME280;38002;53.296;6.600;2023-05-02T23:20:55;103208.84;;;6.06;71.08
51986;BME280;38002;53.296;6.600;2023-05-02T23:25:56;103208.84;;;6.06;71.24
51986;BME280;38002;53.296;6.600;2023-05-02T23:30:57;103209.56;;;6.10;71.20
51986;BME280;38002;53.296;6.600;2023-05-02T23:57:24;103228.69;;;6.24;72.78
